Estación Meteorológica Peña el Pijo (Robertgarden) [ 12/17/17 01:25:19 CET ]

Fecha Hora Presion(HPa) Temp (°C) Humedad % Rocio (°C) Viento ( m/s) Direccion Lluvia 1Hora(mm) Lluvia 24H(mm) LLuvia Total(mm)
2017-Oct-30 01:01:55 1010.000 6.4 82 3.5         1466.45
2017-Oct-30 02:03:12 1009.800 5.6 82 2.7         1466.45
2017-Oct-30 03:02:05 1009.600 5.5 83 2.8         1466.45
2017-Oct-30 04:01:52 1009.000 5.3 84 2.8         1466.45
2017-Oct-30 05:01:48 1008.900 5.0 85 2.6         1466.45
2017-Oct-30 06:01:53 1008.700 4.2 85 1.9         1466.45
2017-Oct-30 07:01:49 1008.600 4.4 86 2.2         1466.45
2017-Oct-30 08:01:50 1008.700 3.8 86 1.7         1466.45
2017-Oct-30 09:02:08 1008.900 7.8 89 6.1         1466.45
2017-Oct-30 10:01:38 1009.000 14.9 77 10.9         1466.45
2017-Oct-30 11:01:48 1008.600 20.3 49 9.2         1466.45
2017-Oct-30 12:01:41 1008.100 22.7 34 5.9         1466.45
2017-Oct-30 13:01:40 1007.500 23.2 30 4.7         1466.45
2017-Oct-30 14:01:48 1006.800 24.3 27 3.9         1466.45
2017-Oct-30 15:01:37 1006.600 24.5 25 3.0         1466.45
2017-Oct-30 16:01:42 1006.600 23.2 33 5.9 2.6 S     1466.45
2017-Oct-30 17:01:35 1007.100 20.8 45 8.4         1466.45
2017-Oct-30 18:01:46 1007.400 17.0 56 8.1         1466.45
2017-Oct-30 19:01:39 1008.200 14.2 63 7.2         1466.45
2017-Oct-30 20:01:34 1008.800 11.9 68 6.2         1466.45
2017-Oct-30 21:01:28 1009.200 9.6 73 5.0         1466.45
2017-Oct-30 22:01:53 1009.800 8.3 78 4.7         1466.45
2017-Oct-30 23:01:33 1010.400 7.2 80 4.0         1466.45

Temperatura Máxima:24°    Temperatura Mínima:
Presión Máxima:1010.400 Hpa    Presión Mínima:1006.600 Hpa


Volver